หน้าหลัก
METAR-TAF:

METAR-TAF

ท่าอากาศยาน :

ซิดนีย์, ออสเตรเลีย

ท่าอากาศยานนานาชาติคิงส์ฟอร์ดสมิธ

ละติจูด: 33-57S, ลองจิจูด: 151-11E, ความสูง: 6 ม.

การสังเกตสภาพอากาศปัจจุบัน

รายงานได้ทำขึ้นเมื่อ 37 นาทีที่แล้ว ณ เวลา 01:00 UTC
ลม 10 นอตจากเหนือ/ตะวันตกเฉียงเหนือ
อุณหภูมิ 15°C
ความชื้น 72%
ความกดอากาศ 1019 hPa
ทัศนวิสัย 10 กม. หรือมากกว่า
ไม่มีเมฆต่ำกว่า 1,500 ม. และไม่มีเมฆคิวมูโลนิมบัส

METAR: YSSY 230100Z 33010KT CAVOK 15/10 Q1019 NOSIG

เวลา: 11:37 (01:37 UTC)

การพยากรณ์

รายงานได้ทำขึ้นเมื่อ 2 ชั่วโมงและ 30 นาทีที่แล้ว ณ เวลา 23:07 UTC
การพยากรณ์มีผลตั้งแต่วันที่ 23 ณ เวลา 00 UTC จนถึงวันที่ 24 ณ เวลา 06 UTC
ลม 8 นอตจากตะวันตก/ตะวันตกเฉียงเหนือ
ทัศนวิสัย 10 กม. หรือมากกว่า
ไม่มีเมฆต่ำกว่า 1,500 ม. และไม่มีเมฆคิวมูโลนิมบัส
จาก 23 ณ เวลา 2300 UTC
ลม 12 นอตจากตะวันตก/ตะวันตกเฉียงใต้
ทัศนวิสัย 10 กม. หรือมากกว่า
ไม่มีเมฆต่ำกว่า 1,500 ม. และไม่มีเมฆคิวมูโลนิมบัส
จาก 24 ณ เวลา 0200 UTC
ลม 15 นอตจากใต้
ทัศนวิสัย 10 กม. หรือมากกว่า
มีเมฆกระจายเป็นบางส่วนที่ความสูง 4500 ฟุต

TAF: YSSY 222307Z 2300/2406 29008KT CAVOK FM232300 24012KT CAVOK FM240200 18015KT 9999 SCT045

สังเกตการณ์สภาพอากาศและพยากรณ์อากาศของสนามบินมากกว่า 4000 แห่ง (รายงาน METAR และ TAF).

สถานีที่ดูได้จะแสดงไว้ด้วยจุดสีเหลืองและสีแดงบนแผนที่.

เลื่อนเมาส์ไปเหนือจุดเพื่อดูชื่อสถานี.

แล้วคลิกเพื่อดูสังเกตการณ์และการพยากรณ์สภาพอากาศ.

ในการเปลี่ยนแผนที่: คลิกที่ปุ่มสีเขียวที่มีกากบาทสีดำเพื่อซูมเข้า; ที่ปุ่มสีเขียวที่มีขีดเพื่อซูมออก; หรือที่ลูกศรสีเขียวเพื่อไปยังแผนที่ที่อยู่ติดกัน.


METAR-TAF: